Time;durP1;ratioP1;P1;durP2;ratioP2;P2;SDS_P1;SDS_P2;PMS_P1;PMS_P2;Temp;Humidity;BMP_temperature;BMP_pressure;BME280_temperature;BME280_humidity;BME280_pressure;Samples;Min_cycle;Max_cycle;Signal;HPM_P1;HPM_P2
2022/06/03 00:02:51;;;;;;;14.80;6.43;;;;;;;10.24;95.72;100595.66;5024840;23;20401;-76
2022/06/03 00:06:00;;;;;;;11.90;5.70;;;;;;;10.12;95.38;100600.28;5024498;23;20211;-75
2022/06/03 00:08:56;;;;;;;14.67;6.50;;;;;;;10.17;96.19;100601.69;5021151;23;20272;-75
2022/06/03 00:11:53;;;;;;;13.50;6.10;;;;;;;10.17;95.96;100599.03;4984757;23;20217;-74
2022/06/03 00:14:49;;;;;;;16.40;6.63;;;;;;;10.06;96.24;100600.81;5020787;23;21292;-76
2022/06/03 00:17:25;;;;;;;12.73;6.77;;;;;;;10.10;96.25;100601.38;5029554;23;20212;-77
2022/06/03 00:20:08;;;;;;;17.10;6.60;;;;;;;10.06;96.63;100600.81;5017108;23;20609;-74
2022/06/03 00:22:53;;;;;;;12.30;6.83;;;;;;;9.90;97.36;100603.16;5018486;23;20466;-74
2022/06/03 00:25:56;;;;;;;12.50;6.67;;;;;;;9.97;97.42;100600.78;5024732;23;22117;-75
2022/06/03 00:28:42;;;;;;;15.53;6.43;;;;;;;10.00;97.29;100596.06;5044636;23;22257;-74
2022/06/03 00:31:20;;;;;;;14.60;6.20;;;;;;;9.97;97.77;100601.63;5038966;23;20256;-76
2022/06/03 00:34:08;;;;;;;10.50;6.40;;;;;;;10.02;97.05;100604.75;5018339;23;20685;-77
2022/06/03 00:36:38;;;;;;;12.80;6.43;;;;;;;10.02;97.41;100598.56;5072277;23;20240;-74
2022/06/03 00:39:24;;;;;;;12.27;6.60;;;;;;;9.95;97.39;100600.94;5024767;23;20485;-75
2022/06/03 00:42:01;;;;;;;13.13;7.00;;;;;;;9.86;97.31;100594.63;5016951;23;20805;-74
2022/06/03 00:44:49;;;;;;;12.20;6.30;;;;;;;9.82;97.95;100595.88;5014152;23;20274;-76
2022/06/03 00:47:37;;;;;;;16.60;6.83;;;;;;;9.80;98.06;100597.81;5032869;23;22855;-75
2022/06/03 00:50:33;;;;;;;12.47;7.00;;;;;;;9.79;98.25;100598.81;5025378;23;20212;-77
2022/06/03 00:53:29;;;;;;;12.10;6.27;;;;;;;9.75;98.40;100607.19;5016636;23;20245;-76
2022/06/03 00:56:23;;;;;;;13.07;6.60;;;;;;;9.74;98.69;100590.41;5017922;23;20206;-75
2022/06/03 00:58:50;;;;;;;14.13;7.20;;;;;;;9.67;99.13;100595.41;5020889;23;20620;-75
2022/06/03 01:01:40;;;;;;;11.37;6.33;;;;;;;9.69;99.15;100601.44;5036082;23;20260;-74
2022/06/03 01:04:31;;;;;;;16.03;7.13;;;;;;;9.72;99.06;100609.13;5047127;23;25297;-74
2022/06/03 01:07:19;;;;;;;12.40;6.43;;;;;;;9.66;99.36;100604.34;5018836;23;20272;-75
2022/06/03 01:10:23;;;;;;;11.80;6.17;;;;;;;9.63;99.81;100607.28;5038357;23;20201;-74
2022/06/03 01:13:01;;;;;;;10.13;6.50;;;;;;;9.59;99.42;100608.53;5034694;23;20205;-74
2022/06/03 01:15:32;;;;;;;11.87;6.47;;;;;;;9.55;99.28;100612.41;5010369;23;20205;-73
2022/06/03 01:18:17;;;;;;;12.10;6.80;;;;;;;9.59;99.22;100611.19;5008008;23;21562;-72
2022/06/03 01:21:09;;;;;;;13.17;6.63;;;;;;;9.59;99.17;100600.56;5038027;23;20234;-72
2022/06/03 01:23:44;;;;;;;12.40;7.07;;;;;;;9.54;99.28;100605.44;5022139;23;20208;-72
2022/06/03 01:26:26;;;;;;;13.13;7.03;;;;;;;9.58;99.54;100612.16;5018273;23;20220;-73
2022/06/03 01:29:15;;;;;;;10.83;6.23;;;;;;;9.61;99.46;100613.72;5032248;23;22179;-71
2022/06/03 01:32:19;;;;;;;14.83;7.17;;;;;;;9.57;99.22;100605.16;5036262;23;20632;-72
2022/06/03 01:34:51;;;;;;;11.00;6.93;;;;;;;9.53;99.20;100609.06;5017921;23;20212;-73
2022/06/03 01:37:33;;;;;;;13.37;7.33;;;;;;;9.49;99.01;100602.34;5016573;23;20288;-72
2022/06/03 01:40:37;;;;;;;12.30;7.37;;;;;;;9.49;99.75;100607.66;4999663;23;20209;-71
2022/06/03 01:43:13;;;;;;;10.27;7.20;;;;;;;9.43;99.55;100609.00;5027858;23;20205;-74
2022/06/03 01:46:11;;;;;;;10.17;6.97;;;;;;;9.40;99.83;100603.13;5019314;23;20243;-72
2022/06/03 01:48:47;;;;;;;15.10;8.17;;;;;;;9.45;99.92;100595.59;5024747;23;22027;-71
2022/06/03 01:51:27;;;;;;;14.93;8.40;;;;;;;9.36;99.94;100599.06;5013678;23;20284;-73
2022/06/03 01:54:28;;;;;;;12.73;7.50;;;;;;;9.28;100.00;100589.94;5011533;23;20307;-72
2022/06/03 01:57:10;;;;;;;13.33;7.73;;;;;;;9.25;100.00;100600.00;5037744;23;20377;-71
2022/06/03 01:59:49;;;;;;;12.60;7.63;;;;;;;9.21;100.00;100596.75;5009800;23;21626;-72
2022/06/03 02:02:55;;;;;;;13.93;8.73;;;;;;;9.27;100.00;100598.91;5007909;23;20279;-71
2022/06/03 02:05:36;;;;;;;18.33;9.10;;;;;;;9.23;100.00;100592.16;5053654;23;20217;-72
2022/06/03 02:08:11;;;;;;;16.47;8.33;;;;;;;9.23;100.00;100592.16;5020365;23;20246;-73
2022/06/03 02:11:04;;;;;;;12.63;8.60;;;;;;;9.20;100.00;100595.09;5009643;23;22541;-74
2022/06/03 02:14:08;;;;;;;14.93;7.97;;;;;;;9.20;100.00;100595.09;5047304;23;20616;-73
2022/06/03 02:17:13;;;;;;;12.90;8.43;;;;;;;9.16;100.00;100590.19;5057734;23;20248;-72
2022/06/03 02:19:50;;;;;;;12.83;8.27;;;;;;;9.03;100.00;100596.53;4989974;23;22280;-76
2022/06/03 02:22:28;;;;;;;12.63;7.53;;;;;;;9.06;100.00;100595.41;5030659;23;21554;-73
2022/06/03 02:24:54;;;;;;;14.43;8.37;;;;;;;9.06;100.00;100598.06;5024783;23;21335;-74
2022/06/03 02:27:50;;;;;;;16.90;8.67;;;;;;;9.07;100.00;100597.13;5006767;23;25305;-71
2022/06/03 02:30:29;;;;;;;14.30;8.07;;;;;;;9.06;100.00;100592.75;5026062;23;20205;-72
2022/06/03 02:33:17;;;;;;;13.90;8.20;;;;;;;9.09;100.00;100600.47;5026701;23;20540;-75
2022/06/03 02:35:46;;;;;;;16.63;8.97;;;;;;;9.17;100.00;100598.00;5013211;23;20271;-72
2022/06/03 02:38:39;;;;;;;15.13;8.30;;;;;;;9.34;100.00;100598.34;5015996;23;20213;-72
2022/06/03 02:41:47;;;;;;;12.73;7.47;;;;;;;9.34;100.00;100595.69;5043421;23;25494;-73
2022/06/03 02:44:52;;;;;;;12.53;8.20;;;;;;;9.33;100.00;100597.53;5041391;23;21385;-76
2022/06/03 02:48:03;;;;;;;17.97;8.33;;;;;;;9.38;100.00;100599.78;5039268;23;20268;-75
2022/06/03 02:50:53;;;;;;;17.87;8.23;;;;;;;9.36;100.00;100601.72;5053018;23;20209;-71
2022/06/03 02:54:02;;;;;;;13.57;7.73;;;;;;;9.32;100.00;100609.13;5030833;23;20674;-75
2022/06/03 02:56:51;;;;;;;19.93;8.37;;;;;;;9.38;100.00;100607.75;5051590;23;20396;-71
2022/06/03 02:59:41;;;;;;;12.00;7.40;;;;;;;9.55;100.00;100622.22;5030315;23;20227;-74
2022/06/03 03:02:12;;;;;;;15.37;8.43;;;;;;;9.64;99.30;100626.72;5020486;23;20206;-71
2022/06/03 03:04:53;;;;;;;14.67;8.67;;;;;;;9.66;98.73;100620.28;5076346;23;23002;-72
2022/06/03 03:07:46;;;;;;;11.33;7.53;;;;;;;9.88;97.38;100623.72;5051367;23;20856;-74
2022/06/03 03:10:50;;;;;;;10.67;7.03;;;;;;;9.99;96.25;100631.59;5006307;23;20209;-73
2022/06/03 03:14:07;;;;;;;12.00;7.37;;;;;;;9.97;95.91;100627.38;5043866;23;21672;-72
2022/06/03 03:17:11;;;;;;;10.63;6.97;;;;;;;10.01;96.11;100634.94;5030173;23;21241;-73
2022/06/03 03:19:56;;;;;;;13.90;7.60;;;;;;;10.03;96.53;100640.13;5038804;23;20272;-75
2022/06/03 03:22:56;;;;;;;12.80;7.20;;;;;;;10.10;95.66;100647.44;5033242;23;20200;-73
2022/06/03 03:25:37;;;;;;;14.03;7.50;;;;;;;10.14;95.57;100650.66;5053626;23;20209;-73
2022/06/03 03:28:19;;;;;;;8.60;6.70;;;;;;;10.18;95.65;100645.91;5062078;23;20209;-72
2022/06/03 03:30:48;;;;;;;11.10;7.47;;;;;;;10.24;95.46;100650.69;5056851;23;20212;-72
2022/06/03 03:33:27;;;;;;;13.30;7.20;;;;;;;10.30;95.25;100656.31;5057060;23;20221;-74
2022/06/03 03:35:57;;;;;;;14.93;7.83;;;;;;;10.28;94.94;100662.72;5016414;23;20690;-72
2022/06/03 03:39:02;;;;;;;14.00;8.30;;;;;;;10.23;95.60;100663.16;5024303;23;20307;-73
2022/06/03 03:41:32;;;;;;;12.53;7.10;;;;;;;10.35;95.17;100659.41;5020877;23;21201;-72
2022/06/03 03:44:12;;;;;;;11.00;6.60;;;;;;;10.43;94.82;100668.50;5002412;23;22134;-74
2022/06/03 03:47:06;;;;;;;13.43;6.67;;;;;;;10.63;92.70;100672.00;5032125;23;20253;-71
2022/06/03 03:50:00;;;;;;;12.63;7.20;;;;;;;10.63;92.18;100674.69;5032770;23;26456;-72
2022/06/03 03:52:57;;;;;;;10.17;6.93;;;;;;;10.87;90.51;100683.09;5000127;23;21095;-71
2022/06/03 03:56:16;;;;;;;14.30;7.23;;;;;;;11.02;88.79;100682.66;5022905;23;20250;-72
2022/06/03 03:59:30;;;;;;;9.27;6.37;;;;;;;11.09;89.49;100689.94;5021732;23;20209;-73
2022/06/03 04:02:19;;;;;;;9.70;5.67;;;;;;;11.34;86.99;100696.50;4934443;23;20283;-72
2022/06/03 04:05:01;;;;;;;7.57;5.30;;;;;;;11.55;84.21;100687.47;4955446;23;21696;-73
2022/06/03 04:07:49;;;;;;;9.13;5.13;;;;;;;11.66;84.37;100686.44;5018144;23;20206;-73
2022/06/03 04:10:47;;;;;;;10.60;6.07;;;;;;;11.71;84.13;100687.69;5006747;23;20217;-74
2022/06/03 04:13:41;;;;;;;7.77;5.93;;;;;;;11.99;81.83;100687.75;5020159;23;20258;-71
2022/06/03 04:16:31;;;;;;;12.20;6.00;;;;;;;11.96;81.38;100690.69;5013829;23;20274;-72
2022/06/03 04:19:40;;;;;;;8.33;5.33;;;;;;;12.20;80.03;100700.84;5004602;23;22019;-73
2022/06/03 04:22:53;;;;;;;12.97;5.67;;;;;;;12.23;79.87;100700.53;5012143;23;20270;-73
2022/06/03 04:25:35;;;;;;;9.23;5.40;;;;;;;12.48;77.59;100701.66;5010872;23;21600;-75
2022/06/03 04:28:31;;;;;;;11.00;5.07;;;;;;;12.67;75.22;100704.19;5006150;23;21600;-72
2022/06/03 04:31:26;;;;;;;8.43;4.73;;;;;;;12.77;74.85;100705.94;5034122;23;21133;-73
2022/06/03 04:34:01;;;;;;;8.77;5.07;;;;;;;12.88;74.25;100701.19;5009740;23;20212;-73
2022/06/03 04:36:38;;;;;;;8.67;4.27;;;;;;;13.03;72.95;100714.00;5034165;23;20275;-72
2022/06/03 04:39:42;;;;;;;13.60;4.50;;;;;;;13.23;72.42;100717.34;5002174;23;22044;-73
2022/06/03 04:42:34;;;;;;;12.83;5.20;;;;;;;13.34;71.29;100721.63;5023922;23;20217;-72
2022/06/03 04:45:25;;;;;;;8.83;4.47;;;;;;;13.44;70.18;100717.88;5004009;23;20229;-71
2022/06/03 04:48:10;;;;;;;10.57;4.93;;;;;;;13.52;70.03;100717.91;5012808;23;20350;-74
2022/06/03 04:51:05;;;;;;;7.90;4.97;;;;;;;13.66;69.73;100721.00;5019513;23;20205;-73
2022/06/03 04:53:50;;;;;;;12.97;5.17;;;;;;;13.67;70.77;100723.53;4997686;23;22831;-74
2022/06/03 04:56:23;;;;;;;12.97;5.40;;;;;;;13.79;71.16;100728.59;4992777;23;21559;-74
2022/06/03 04:59:26;;;;;;;8.23;5.30;;;;;;;13.91;70.52;100728.19;4983236;23;20226;-71
2022/06/03 05:02:02;;;;;;;6.60;4.73;;;;;;;14.01;69.25;100730.72;5012799;23;20201;-72
2022/06/03 05:04:53;;;;;;;5.97;3.80;;;;;;;14.25;67.14;100731.81;5011770;23;20343;-74
2022/06/03 05:07:39;;;;;;;7.37;3.87;;;;;;;14.49;65.11;100734.59;5018696;23;21275;-72
2022/06/03 05:10:15;;;;;;;8.83;3.97;;;;;;;14.51;64.82;100742.44;5004761;23;20288;-74
2022/06/03 05:13:03;;;;;;;8.80;5.20;;;;;;;14.68;63.32;100738.88;4985809;23;22111;-74
2022/06/03 05:15:51;;;;;;;8.03;5.33;;;;;;;14.91;62.81;100744.44;5007642;23;20210;-71
2022/06/03 05:18:18;;;;;;;6.60;3.23;;;;;;;15.20;60.82;100745.78;4997659;23;20297;-74
2022/06/03 05:21:02;;;;;;;8.67;3.20;;;;;;;15.47;59.83;100751.78;5018682;23;20473;-72
2022/06/03 05:23:49;;;;;;;6.73;3.97;;;;;;;15.85;57.19;100755.63;5027536;23;20205;-72
2022/06/03 05:26:30;;;;;;;8.50;3.07;;;;;;;16.16;55.75;100755.69;5010631;23;20248;-72
2022/06/03 05:29:26;;;;;;;8.87;3.50;;;;;;;16.62;54.90;100761.19;5005534;23;21323;-74
2022/06/03 05:32:22;;;;;;;6.67;3.40;;;;;;;17.37;52.20;100766.91;5017528;23;20249;-72
2022/06/03 05:35:07;;;;;;;7.07;3.23;;;;;;;18.02;50.28;100770.84;5011321;23;22269;-73
2022/06/03 05:37:43;;;;;;;4.43;2.80;;;;;;;18.82;46.50;100778.09;5009894;23;21610;-73
2022/06/03 05:40:34;;;;;;;11.00;3.40;;;;;;;19.11;44.71;100779.84;5004332;23;23425;-72
2022/06/03 05:43:26;;;;;;;9.17;3.17;;;;;;;19.80;43.61;100784.59;5015487;23;20205;-72
2022/06/03 05:46:06;;;;;;;6.50;2.80;;;;;;;20.92;41.07;100777.25;4979297;23;21740;-74
2022/06/03 05:48:40;;;;;;;4.33;2.53;;;;;;;21.87;38.04;100788.78;4970800;23;20214;-73
2022/06/03 05:51:29;;;;;;;10.10;2.90;;;;;;;22.66;35.68;100800.44;5011990;23;20727;-73
2022/06/03 05:54:35;;;;;;;6.80;2.40;;;;;;;22.91;34.76;100799.72;4991065;23;20206;-73
2022/06/03 05:57:16;;;;;;;6.33;2.33;;;;;;;23.80;33.75;100801.41;4987067;23;20214;-74
2022/06/03 05:59:55;;;;;;;9.43;2.93;;;;;;;24.14;32.88;100798.31;5000965;23;20213;-74
2022/06/03 06:02:34;;;;;;;13.60;2.87;;;;;;;25.05;30.16;100802.88;4973850;23;20498;-75
2022/06/03 06:05:07;;;;;;;4.63;2.10;;;;;;;25.17;29.81;100813.81;4944098;23;21863;-76
2022/06/03 06:07:37;;;;;;;8.67;2.43;;;;;;;25.31;28.99;100806.28;4986417;23;21676;-75
2022/06/03 06:10:30;;;;;;;9.47;2.23;;;;;;;25.43;28.31;100806.31;4990115;23;20339;-72
2022/06/03 06:13:28;;;;;;;6.87;2.17;;;;;;;26.83;27.16;100820.94;4984424;23;21633;-76
2022/06/03 06:16:15;;;;;;;10.33;2.30;;;;;;;27.56;25.08;100830.19;4956894;23;20248;-74
2022/06/03 06:19:00;;;;;;;6.63;1.93;;;;;;;27.08;24.95;100828.75;4994240;23;20266;-69
2022/06/03 06:21:49;;;;;;;7.37;2.13;;;;;;;27.56;24.34;100826.63;4960985;23;20206;-73
2022/06/03 06:24:38;;;;;;;6.00;2.10;;;;;;;27.13;25.03;100828.84;5000193;23;20202;-72
2022/06/03 06:27:29;;;;;;;8.35;2.17;;;;;;;28.33;23.17;100830.50;4988620;23;20214;-71
2022/06/03 06:30:25;;;;;;;7.20;2.28;;;;;;;27.96;23.39;100825.63;4985015;23;20645;-71
2022/06/03 06:33:10;;;;;;;5.83;1.80;;;;;;;27.52;23.36;100834.47;4984588;23;20506;-70
2022/06/03 06:35:58;;;;;;;6.53;1.73;;;;;;;26.76;23.93;100822.94;4989204;23;21134;-72
2022/06/03 06:38:47;;;;;;;5.20;1.63;;;;;;;26.31;24.17;100818.19;5017567;23;20298;-72
2022/06/03 06:41:41;;;;;;;5.17;2.10;;;;;;;26.03;24.61;100819.75;4974293;23;21276;-71
2022/06/03 06:44:35;;;;;;;5.23;2.03;;;;;;;25.14;26.10;100816.16;4992431;23;20244;-73
2022/06/03 06:47:19;;;;;;;4.57;1.97;;;;;;;26.55;25.26;100820.88;4988145;23;20379;-73
2022/06/03 06:50:19;;;;;;;5.50;1.70;;;;;;;27.71;23.48;100823.31;4995104;23;20209;-70
2022/06/03 06:53:11;;;;;;;2.70;1.80;;;;;;;27.56;22.96;100830.19;5058847;23;20251;-72
2022/06/03 06:56:09;;;;;;;5.37;1.50;;;;;;;28.24;23.19;100829.28;5000799;23;20205;-71
2022/06/03 06:58:50;;;;;;;5.07;1.92;;;;;;;29.03;22.71;100829.75;5010587;23;20637;-71
2022/06/03 07:01:21;;;;;;;9.47;2.00;;;;;;;29.57;21.37;100828.88;5021193;23;22906;-71
2022/06/03 07:04:12;;;;;;;10.40;2.03;;;;;;;29.32;21.21;100829.50;5037174;23;21394;-76
2022/06/03 07:06:43;;;;;;;4.82;1.70;;;;;;;29.26;21.15;100833.25;5023639;23;20926;-71
2022/06/03 07:09:09;;;;;;;7.03;1.77;;;;;;;28.96;21.51;100826.38;5009440;23;20210;-74
2022/06/03 07:11:59;;;;;;;6.43;2.07;;;;;;;28.92;21.95;100819.75;5020488;23;20303;-76
2022/06/03 07:14:30;;;;;;;3.20;1.77;;;;;;;27.97;22.89;100808.13;5020118;23;25514;-72
2022/06/03 07:20:12;;;;;;;3.73;1.90;;;;;;;27.43;23.12;100805.91;5018853;23;20209;-76
2022/06/03 07:22:46;;;;;;;2.60;1.73;;;;;;;26.60;25.61;100801.88;4998616;23;20303;-80
2022/06/03 07:25:16;;;;;;;5.47;3.13;;;;;;;25.58;27.40;100784.06;5005934;23;20205;-72
2022/06/03 07:27:42;;;;;;;2.20;1.70;;;;;;;25.61;26.93;100780.84;5045230;23;20209;-74
2022/06/03 07:30:41;;;;;;;4.57;1.90;;;;;;;25.21;28.18;100782.31;5081253;23;20631;-74
2022/06/03 07:33:14;;;;;;;4.30;2.10;;;;;;;24.90;27.88;100782.56;5003758;23;21538;-75
2022/06/03 07:35:54;;;;;;;6.63;1.90;;;;;;;24.44;28.49;100774.78;5022313;23;21162;-75
2022/06/03 07:38:34;;;;;;;6.03;1.70;;;;;;;24.54;28.35;100779.69;5009871;23;20350;-75
2022/06/03 07:41:08;;;;;;;2.13;1.60;;;;;;;24.46;29.13;100773.69;5005760;23;20612;-73
2022/06/03 07:43:54;;;;;;;4.77;1.83;;;;;;;24.75;27.92;100781.09;5021307;23;20210;-76
2022/06/03 07:46:52;;;;;;;3.30;1.40;;;;;;;24.94;26.81;100786.50;5020654;23;22060;-75
2022/06/03 07:49:21;;;;;;;4.10;1.50;;;;;;;24.21;26.81;100777.34;5030139;23;20209;-73
2022/06/03 07:51:52;;;;;;;8.53;1.70;;;;;;;24.44;26.84;100780.22;5022166;23;20251;-74
2022/06/03 07:54:31;;;;;;;11.03;2.00;;;;;;;24.48;27.37;100779.78;5024396;23;20754;-74
2022/06/03 07:57:07;;;;;;;2.77;1.70;;;;;;;24.29;27.07;100774.31;4995401;23;20201;-73
2022/06/03 07:59:38;;;;;;;7.97;2.10;;;;;;;24.07;27.60;100775.81;5004007;23;20201;-74
2022/06/03 08:02:14;;;;;;;5.60;1.53;;;;;;;24.16;28.19;100775.31;5025093;23;22010;-76
2022/06/03 08:04:41;;;;;;;7.47;2.03;;;;;;;24.08;28.84;100774.78;5064776;23;20346;-76
2022/06/03 08:13:08;;;;;;;6.57;1.90;;;;;;;23.04;32.26;100772.53;5031597;23;20670;-74
2022/06/03 08:15:37;;;;;;;5.60;1.90;;;;;;;22.80;31.26;100776.78;5005937;23;21532;-74
2022/06/03 08:18:05;;;;;;;4.00;1.97;;;;;;;23.07;30.73;100773.97;5023775;23;20201;-74
2022/06/03 08:20:51;;;;;;;11.50;2.40;;;;;;;22.97;30.22;100777.13;4999362;23;21162;-76
2022/06/03 08:23:19;;;;;;;3.97;2.10;;;;;;;23.40;30.61;100779.16;5037181;23;20233;-73
2022/06/03 08:25:49;;;;;;;6.77;2.30;;;;;;;23.79;29.47;100777.19;5007629;23;20201;-74
2022/06/03 08:28:20;;;;;;;6.80;2.00;;;;;;;23.50;29.75;100773.22;5014601;23;20211;-72
2022/06/03 08:30:48;;;;;;;8.77;1.67;;;;;;;22.88;30.19;100765.69;5018904;23;20288;-77
2022/06/03 08:33:18;;;;;;;4.23;1.40;;;;;;;23.00;30.03;100765.88;5007967;23;23587;-73
2022/06/03 08:35:47;;;;;;;4.17;1.50;;;;;;;22.51;31.73;100757.34;5020895;23;20304;-72
2022/06/03 08:38:19;;;;;;;4.40;1.73;;;;;;;21.90;33.28;100753.13;4995956;23;20484;-74
2022/06/03 08:41:09;;;;;;;5.87;2.20;;;;;;;21.46;35.10;100743.81;5003906;23;22206;-74
2022/06/03 08:43:38;;;;;;;3.30;1.50;;;;;;;21.29;35.79;100750.66;5034739;23;21668;-76
2022/06/03 08:46:20;;;;;;;7.60;1.80;;;;;;;21.62;35.91;100742.56;5042772;23;22009;-74
2022/06/03 08:48:48;;;;;;;3.57;1.47;;;;;;;21.71;33.65;100749.41;4995100;23;20293;-75
2022/06/03 08:51:23;;;;;;;2.63;1.40;;;;;;;21.25;33.01;100744.81;5030193;23;20215;-74
2022/06/03 08:54:01;;;;;;;4.77;1.30;;;;;;;21.43;32.31;100751.53;4999164;23;22117;-73
2022/06/03 08:56:44;;;;;;;3.73;1.57;;;;;;;21.61;32.22;100748.16;5023295;23;20861;-73
2022/06/03 08:59:18;;;;;;;1.83;1.20;;;;;;;21.30;33.49;100744.19;5053710;23;20205;-73
2022/06/03 09:02:00;;;;;;;8.40;1.50;;;;;;;22.12;32.07;100744.72;5022471;23;20281;-75
2022/06/03 09:04:52;;;;;;;6.67;1.90;;;;;;;22.76;30.66;100746.56;5031838;23;20214;-75
2022/06/03 09:07:25;;;;;;;15.57;2.63;;;;;;;22.84;31.26;100747.34;5046847;23;25433;-73
2022/06/03 09:09:56;;;;;;;11.43;2.27;;;;;;;22.72;31.63;100750.75;5031168;23;20444;-73
2022/06/03 09:12:23;;;;;;;17.43;2.40;;;;;;;22.95;32.01;100741.25;5015156;23;20205;-72
2022/06/03 09:14:51;;;;;;;6.80;2.03;;;;;;;22.98;32.83;100738.06;5030053;23;22119;-73
2022/06/03 09:17:39;;;;;;;3.50;1.77;;;;;;;23.38;31.46;100748.66;5023757;23;21177;-75
2022/06/03 09:20:11;;;;;;;4.27;1.90;;;;;;;23.62;29.74;100760.56;5013203;23;20273;-74
2022/06/03 09:22:38;;;;;;;5.90;1.57;;;;;;;23.24;29.91;100752.53;5000109;23;23080;-75
2022/06/03 09:25:06;;;;;;;3.57;1.70;;;;;;;22.75;32.12;100755.75;5021321;23;20212;-73
2022/06/03 09:27:34;;;;;;;6.80;2.20;;;;;;;22.67;32.37;100755.19;5013522;23;20205;-75
2022/06/03 09:30:03;;;;;;;5.57;1.80;;;;;;;22.57;32.42;100750.22;5030084;23;20479;-76
2022/06/03 09:32:35;;;;;;;2.13;1.57;;;;;;;21.74;33.90;100740.03;5022052;23;20213;-77
2022/06/03 09:35:06;;;;;;;3.30;1.50;;;;;;;21.25;34.20;100738.59;5014016;23;23542;-74
2022/06/03 09:37:39;;;;;;;5.00;1.80;;;;;;;20.93;34.88;100735.66;5044191;23;20216;-80
2022/06/03 09:40:09;;;;;;;7.00;1.90;;;;;;;20.87;35.45;100736.47;4992919;23;20758;-75
2022/06/03 09:42:37;;;;;;;4.80;1.93;;;;;;;20.46;35.66;100731.94;5041240;23;21294;-80
2022/06/03 09:45:06;;;;;;;6.10;1.70;;;;;;;20.83;34.44;100735.22;5037795;23;20997;-74
2022/06/03 09:47:34;;;;;;;4.70;1.97;;;;;;;21.01;34.13;100732.75;5000604;23;21356;-73
2022/06/03 09:50:00;;;;;;;3.53;1.80;;;;;;;21.22;34.15;100736.31;5023042;23;20485;-77
2022/06/03 09:52:28;;;;;;;5.40;1.70;;;;;;;21.02;36.30;100733.56;5040510;23;20273;-74
2022/06/03 09:54:59;;;;;;;7.03;2.10;;;;;;;20.81;34.82;100727.31;5031730;23;21531;-75
2022/06/03 09:57:32;;;;;;;3.27;1.67;;;;;;;21.05;34.23;100719.66;5028607;23;20204;-73
2022/06/03 10:00:10;;;;;;;2.63;1.53;;;;;;;21.54;33.07;100722.97;5013599;23;21536;-73
2022/06/03 10:02:36;;;;;;;2.57;1.20;;;;;;;22.14;33.28;100729.91;4997031;23;20288;-74
2022/06/03 10:05:05;;;;;;;3.57;1.33;;;;;;;21.99;33.27;100728.53;5014532;23;20916;-72
2022/06/03 10:07:33;;;;;;;1.83;1.13;;;;;;;22.32;31.91;100723.84;5046389;23;20211;-74
2022/06/03 10:12:49;;;;;;;3.27;1.57;;;;;;;21.94;31.83;100721.03;5256594;23;20207;-77
2022/06/03 10:15:42;;;;;;;4.07;2.33;;;;;;;21.63;33.83;100709.03;5179811;23;20383;-78
2022/06/03 10:18:20;;;;;;;2.43;1.63;;;;;;;21.76;34.13;100708.16;5021113;23;20205;-78
2022/06/03 10:20:49;;;;;;;1.90;1.27;;;;;;;21.92;33.31;100707.69;5080403;23;20209;-75
2022/06/03 10:23:20;;;;;;;3.17;1.60;;;;;;;21.62;33.00;100711.94;5010380;23;20216;-78
2022/06/03 10:26:08;;;;;;;4.17;1.93;;;;;;;21.32;33.40;100711.53;5037229;23;20288;-73
2022/06/03 10:28:36;;;;;;;3.40;1.63;;;;;;;20.92;33.83;100698.81;5025809;23;20484;-75
2022/06/03 10:31:06;;;;;;;6.30;1.60;;;;;;;21.47;33.55;100704.88;4994770;23;20283;-76
2022/06/03 10:33:33;;;;;;;4.30;3.10;;;;;;;21.85;33.77;100712.31;5019293;23;20201;-74
2022/06/03 10:36:02;;;;;;;2.67;1.30;;;;;;;22.40;33.02;100708.38;5018618;23;22881;-76
2022/06/03 10:38:32;;;;;;;3.90;1.63;;;;;;;22.44;30.69;100712.31;5006577;23;20578;-75
2022/06/03 10:41:05;;;;;;;3.03;1.40;;;;;;;21.96;31.91;100708.13;5007563;23;20319;-77
2022/06/03 10:43:33;;;;;;;2.13;1.30;;;;;;;21.62;34.15;100701.09;5013872;23;20209;-75
2022/06/03 10:46:13;;;;;;;3.30;2.23;;;;;;;21.92;33.90;100702.28;5009799;23;20255;-76
2022/06/03 10:48:40;;;;;;;2.90;1.30;;;;;;;21.85;33.48;100703.34;5034794;23;20212;-75
2022/06/03 11:02:38;;;;;;;3.70;2.10;;;;;;;22.70;31.66;100687.75;5028930;23;21587;-76
2022/06/03 11:05:26;;;;;;;3.27;1.50;;;;;;;23.08;31.57;100694.19;4999502;23;20217;-75
2022/06/03 11:08:05;;;;;;;7.77;1.80;;;;;;;22.69;31.53;100688.81;5016563;23;20209;-77
2022/06/03 11:11:04;;;;;;;2.60;1.60;;;;;;;22.49;31.77;100691.63;5020390;23;20232;-80
2022/06/03 11:13:39;;;;;;;4.10;1.30;;;;;;;22.41;33.29;100682.94;4997736;23;20205;-75
2022/06/03 11:16:26;;;;;;;2.90;1.57;;;;;;;22.03;33.96;100675.53;5012715;23;20211;-76
2022/06/03 11:18:53;;;;;;;4.83;1.60;;;;;;;22.02;33.63;100680.13;5020995;23;20748;-77
2022/06/03 11:21:29;;;;;;;2.20;1.70;;;;;;;21.73;33.25;100676.09;5063808;23;20218;-75
2022/06/03 11:23:57;;;;;;;2.30;1.70;;;;;;;22.06;33.08;100669.72;5037288;23;20211;-76
2022/06/03 11:26:27;;;;;;;3.23;1.70;;;;;;;21.95;33.36;100667.66;4992209;23;20212;-77
2022/06/03 11:29:01;;;;;;;1.33;1.20;;;;;;;22.12;33.61;100663.41;5032211;23;21804;-81
2022/06/03 11:31:32;;;;;;;3.27;1.40;;;;;;;22.28;32.96;100659.41;5021184;23;20209;-75
2022/06/03 11:34:09;;;;;;;4.03;1.30;;;;;;;22.51;33.42;100659.69;5047359;23;20209;-75
2022/06/03 11:36:40;;;;;;;3.93;1.27;;;;;;;22.61;34.23;100656.50;5021241;23;20260;-78
2022/06/03 11:39:11;;;;;;;3.47;1.50;;;;;;;22.78;32.15;100656.81;5045572;23;20209;-75
2022/06/03 11:41:42;;;;;;;5.67;1.50;;;;;;;23.00;30.59;100646.44;5021873;23;20542;-72
2022/06/03 11:44:16;;;;;;;4.10;1.70;;;;;;;22.91;30.65;100650.44;5019467;23;20210;-74
2022/06/03 11:46:56;;;;;;;5.40;1.20;;;;;;;22.76;31.84;100648.88;5019678;23;20334;-78
2022/06/03 11:49:24;;;;;;;1.80;1.40;;;;;;;22.99;31.19;100641.22;5036477;23;21212;-80
2022/06/03 11:51:51;;;;;;;3.77;1.47;;;;;;;23.16;33.25;100636.91;4998975;23;20262;-79
2022/06/03 11:54:21;;;;;;;2.53;1.30;;;;;;;22.86;32.43;100642.16;4989771;23;23402;-74
2022/06/03 11:56:48;;;;;;;2.07;1.40;;;;;;;22.75;31.70;100635.53;5035265;23;20260;-77
2022/06/03 11:59:25;;;;;;;3.90;1.33;;;;;;;22.95;30.67;100636.22;5081688;23;20216;-76
2022/06/03 12:02:08;;;;;;;4.03;1.30;;;;;;;23.12;31.74;100630.25;5072954;23;20244;-77
2022/06/03 12:04:57;;;;;;;3.77;1.30;;;;;;;23.54;30.90;100639.44;5060833;23;20927;-77
2022/06/03 12:07:40;;;;;;;4.50;1.60;;;;;;;23.34;29.07;100641.53;5007488;23;20264;-74
2022/06/03 12:10:13;;;;;;;7.27;1.47;;;;;;;23.23;29.59;100642.28;5049007;23;20369;-72
2022/06/03 12:15:35;;;;;;;4.13;1.27;;;;;;;22.68;30.09;100622.00;5033909;23;22023;-62
2022/06/03 12:18:07;;;;;;;2.87;1.60;;;;;;;22.71;30.65;100624.31;5051505;23;24659;-74
2022/06/03 12:20:50;;;;;;;4.23;1.40;;;;;;;22.92;30.90;100624.94;5069246;23;20747;-70
2022/06/03 12:23:16;;;;;;;3.80;1.57;;;;;;;22.83;33.05;100618.13;5008559;23;21514;-59
2022/06/03 12:25:53;;;;;;;5.13;1.63;;;;;;;23.07;31.86;100611.09;5024365;23;20201;-64
2022/06/03 12:28:26;;;;;;;3.03;1.33;;;;;;;22.98;32.24;100613.22;5037989;23;22179;-70
2022/06/03 12:30:56;;;;;;;4.43;1.60;;;;;;;22.90;31.39;100616.22;5005207;23;21105;-71
2022/06/03 12:33:31;;;;;;;3.03;1.43;;;;;;;22.51;31.82;100612.75;5041160;23;20221;-76
2022/06/03 12:36:06;;;;;;;3.13;1.30;;;;;;;21.95;33.09;100602.63;5016363;23;23011;-73
2022/06/03 12:38:43;;;;;;;4.07;1.77;;;;;;;21.63;33.69;100597.97;5023915;23;21934;-77
2022/06/03 12:41:10;;;;;;;3.43;1.80;;;;;;;21.65;34.10;100597.75;5043876;23;20294;-74
2022/06/03 12:43:45;;;;;;;2.13;1.43;;;;;;;22.01;33.49;100596.34;5025774;23;20209;-74
2022/06/03 12:46:35;;;;;;;2.73;1.47;;;;;;;22.13;34.48;100590.03;4992947;23;23059;-74
2022/06/03 12:49:04;;;;;;;2.00;1.50;;;;;;;22.29;33.83;100594.13;5073669;23;25284;-75
2022/06/03 12:51:35;;;;;;;7.70;1.40;;;;;;;22.74;32.25;100596.72;5034904;23;20263;-75
2022/06/03 12:54:04;;;;;;;1.47;1.17;;;;;;;22.60;32.34;100595.16;5010143;23;20213;-76
2022/06/03 12:56:42;;;;;;;2.53;1.37;;;;;;;21.93;32.92;100592.81;5024899;23;20353;-74
2022/06/03 12:59:23;;;;;;;5.23;1.60;;;;;;;21.99;33.83;100593.88;5034484;23;20213;-74